Clyde, North Dakota
Current Conditions -  °F | °C
As of 5:35 PM on Thursday 18 Dec 2014 (Local Time) from K9D7 Reporting Station
Overcast Overcast  
Wind Chill:   Ceiling: 800
Heat Index: 19°   Visibility: 7mi
Dew Point: 18°   Wind: 8mph
Humidity: 93%   Direction: 160°SSE
Pressure: 30.07"   Gusts: NA
Location:  48.6309°N, 98.8489°W
Report Text: K9D7 182335Z AUTO 16007KT 7SM OVC008 M07/M08 A3007 RMK AO2
Loading
Personal Weather Stations






























Interactive Weather Map New forecast layout! Learn more

10-Day Weather Forecast

Advertisements
Track Severe Weather on mobile